sensor_id;sensor_type;location;lat;lon;timestamp;pressure;altitude;pressure_sealevel;temperature;humidity
61571;BME280;47463;49.884;10.010;2022-12-16T00:00:01;100970;;;-2.6;75
61571;BME280;47463;49.884;10.010;2022-12-16T00:05:01;100980;;;-2.5;74
61571;BME280;47463;49.884;10.010;2022-12-16T00:10:01;100980;;;-2.5;74
61571;BME280;47463;49.884;10.010;2022-12-16T00:15:01;100980;;;-2.5;74
61571;BME280;47463;49.884;10.010;2022-12-16T00:20:01;100980;;;-2.5;74
61571;BME280;47463;49.884;10.010;2022-12-16T00:25:01;100970;;;-2.5;73
61571;BME280;47463;49.884;10.010;2022-12-16T00:30:01;100970;;;-2.4;73
61571;BME280;47463;49.884;10.010;2022-12-16T00:35:01;100970;;;-2.4;73
61571;BME280;47463;49.884;10.010;2022-12-16T00:40:01;100970;;;-2.4;72
61571;BME280;47463;49.884;10.010;2022-12-16T00:45:01;100960;;;-2.4;72
61571;BME280;47463;49.884;10.010;2022-12-16T00:50:01;100960;;;-2.4;72
61571;BME280;47463;49.884;10.010;2022-12-16T00:55:01;100950;;;-2.5;72
61571;BME280;47463;49.884;10.010;2022-12-16T01:00:01;100950;;;-2.5;72
61571;BME280;47463;49.884;10.010;2022-12-16T01:05:01;100960;;;-2.5;71
61571;BME280;47463;49.884;10.010;2022-12-16T01:10:01;100970;;;-2.5;71
61571;BME280;47463;49.884;10.010;2022-12-16T01:15:01;100970;;;-2.5;71
61571;BME280;47463;49.884;10.010;2022-12-16T01:20:01;100980;;;-2.4;71
61571;BME280;47463;49.884;10.010;2022-12-16T01:25:01;100990;;;-2.4;70
61571;BME280;47463;49.884;10.010;2022-12-16T01:30:01;101000;;;-2.4;70
61571;BME280;47463;49.884;10.010;2022-12-16T01:35:01;101010;;;-2.4;70
61571;BME280;47463;49.884;10.010;2022-12-16T01:40:01;101020;;;-2.3;70
61571;BME280;47463;49.884;10.010;2022-12-16T01:45:21;101020;;;-2.3;70
61571;BME280;47463;49.884;10.010;2022-12-16T01:50:01;101020;;;-2.3;70
61571;BME280;47463;49.884;10.010;2022-12-16T01:55:01;101020;;;-2.3;69
61571;BME280;47463;49.884;10.010;2022-12-16T02:00:01;101020;;;-2.3;69
61571;BME280;47463;49.884;10.010;2022-12-16T02:05:01;101020;;;-2.3;69
61571;BME280;47463;49.884;10.010;2022-12-16T02:10:01;101030;;;-2.2;69
61571;BME280;47463;49.884;10.010;2022-12-16T02:15:03;101030;;;-2.3;69
61571;BME280;47463;49.884;10.010;2022-12-16T02:20:08;101030;;;-2.3;69
61571;BME280;47463;49.884;10.010;2022-12-16T02:25:06;101030;;;-2.2;69
61571;BME280;47463;49.884;10.010;2022-12-16T02:30:03;101030;;;-2.2;69
61571;BME280;47463;49.884;10.010;2022-12-16T02:35:03;101020;;;-2.2;69
61571;BME280;47463;49.884;10.010;2022-12-16T02:40:02;101030;;;-2.1;68
61571;BME280;47463;49.884;10.010;2022-12-16T02:45:02;101020;;;-2.1;68
61571;BME280;47463;49.884;10.010;2022-12-16T02:50:01;101020;;;-2.1;68
61571;BME280;47463;49.884;10.010;2022-12-16T02:55:01;101010;;;-2.1;68
61571;BME280;47463;49.884;10.010;2022-12-16T03:00:01;101010;;;-2.1;68
61571;BME280;47463;49.884;10.010;2022-12-16T03:05:02;101010;;;-2.2;69
61571;BME280;47463;49.884;10.010;2022-12-16T03:10:01;101000;;;-2.2;69
61571;BME280;47463;49.884;10.010;2022-12-16T03:15:01;101010;;;-2.2;69
61571;BME280;47463;49.884;10.010;2022-12-16T03:20:02;101010;;;-2.2;69
61571;BME280;47463;49.884;10.010;2022-12-16T03:25:01;101010;;;-2.3;69
61571;BME280;47463;49.884;10.010;2022-12-16T03:30:01;101020;;;-2.3;69
61571;BME280;47463;49.884;10.010;2022-12-16T03:35:01;101020;;;-2.3;69
61571;BME280;47463;49.884;10.010;2022-12-16T03:40:02;101020;;;-2.3;69
61571;BME280;47463;49.884;10.010;2022-12-16T03:45:01;101020;;;-2.4;69
61571;BME280;47463;49.884;10.010;2022-12-16T03:50:01;101030;;;-2.4;69
61571;BME280;47463;49.884;10.010;2022-12-16T03:55:01;101040;;;-2.4;69
61571;BME280;47463;49.884;10.010;2022-12-16T04:00:01;101040;;;-2.4;69
61571;BME280;47463;49.884;10.010;2022-12-16T04:05:01;101040;;;-2.5;69
61571;BME280;47463;49.884;10.010;2022-12-16T04:10:01;101040;;;-2.5;69
61571;BME280;47463;49.884;10.010;2022-12-16T04:15:01;101040;;;-2.5;69
61571;BME280;47463;49.884;10.010;2022-12-16T04:20:01;101050;;;-2.5;68
61571;BME280;47463;49.884;10.010;2022-12-16T04:25:02;101050;;;-2.5;68
61571;BME280;47463;49.884;10.010;2022-12-16T04:30:01;101060;;;-2.6;68
61571;BME280;47463;49.884;10.010;2022-12-16T04:35:01;101070;;;-2.6;68
61571;BME280;47463;49.884;10.010;2022-12-16T04:40:01;101070;;;-2.7;68
61571;BME280;47463;49.884;10.010;2022-12-16T04:45:01;101070;;;-2.8;68
61571;BME280;47463;49.884;10.010;2022-12-16T04:50:01;101080;;;-2.9;68
61571;BME280;47463;49.884;10.010;2022-12-16T04:55:01;101090;;;-3;68
61571;BME280;47463;49.884;10.010;2022-12-16T05:00:01;101100;;;-3;68
61571;BME280;47463;49.884;10.010;2022-12-16T05:05:01;101110;;;-3;67
61571;BME280;47463;49.884;10.010;2022-12-16T05:10:01;101110;;;-3.1;67
61571;BME280;47463;49.884;10.010;2022-12-16T05:15:01;101130;;;-3.2;67
61571;BME280;47463;49.884;10.010;2022-12-16T05:20:01;101130;;;-3.3;67
61571;BME280;47463;49.884;10.010;2022-12-16T05:25:01;101140;;;-3.3;67
61571;BME280;47463;49.884;10.010;2022-12-16T05:30:01;101140;;;-3.3;66
61571;BME280;47463;49.884;10.010;2022-12-16T05:35:01;101140;;;-3.4;66
61571;BME280;47463;49.884;10.010;2022-12-16T05:40:01;101150;;;-3.4;66
61571;BME280;47463;49.884;10.010;2022-12-16T05:45:01;101170;;;-3.4;65
61571;BME280;47463;49.884;10.010;2022-12-16T05:50:01;101170;;;-3.5;66
61571;BME280;47463;49.884;10.010;2022-12-16T05:55:01;101180;;;-3.5;65
61571;BME280;47463;49.884;10.010;2022-12-16T06:00:01;101170;;;-3.4;65
61571;BME280;47463;49.884;10.010;2022-12-16T06:05:01;101180;;;-3.4;64
61571;BME280;47463;49.884;10.010;2022-12-16T06:10:01;101200;;;-3.4;64
61571;BME280;47463;49.884;10.010;2022-12-16T06:15:01;101210;;;-3.4;63
61571;BME280;47463;49.884;10.010;2022-12-16T06:20:01;101210;;;-3.4;63
61571;BME280;47463;49.884;10.010;2022-12-16T06:25:01;101220;;;-3.5;64
61571;BME280;47463;49.884;10.010;2022-12-16T06:30:01;101230;;;-3.6;64
61571;BME280;47463;49.884;10.010;2022-12-16T06:35:01;101230;;;-3.7;65
61571;BME280;47463;49.884;10.010;2022-12-16T06:40:01;101250;;;-3.7;65
61571;BME280;47463;49.884;10.010;2022-12-16T06:45:01;101260;;;-3.8;66
61571;BME280;47463;49.884;10.010;2022-12-16T06:50:01;101270;;;-3.7;66
61571;BME280;47463;49.884;10.010;2022-12-16T06:55:01;101280;;;-3.8;67
61571;BME280;47463;49.884;10.010;2022-12-16T07:00:01;101280;;;-3.8;67
61571;BME280;47463;49.884;10.010;2022-12-16T07:05:01;101290;;;-3.9;68
61571;BME280;47463;49.884;10.010;2022-12-16T07:10:01;101290;;;-3.9;68
61571;BME280;47463;49.884;10.010;2022-12-16T07:15:01;101300;;;-3.9;69
61571;BME280;47463;49.884;10.010;2022-12-16T07:20:01;101320;;;-3.8;69
61571;BME280;47463;49.884;10.010;2022-12-16T07:25:01;101330;;;-3.8;69
61571;BME280;47463;49.884;10.010;2022-12-16T07:30:01;101330;;;-3.7;69
61571;BME280;47463;49.884;10.010;2022-12-16T07:35:01;101330;;;-3.7;69
61571;BME280;47463;49.884;10.010;2022-12-16T07:40:01;101340;;;-3.7;70
61571;BME280;47463;49.884;10.010;2022-12-16T07:45:01;101360;;;-3.7;70
61571;BME280;47463;49.884;10.010;2022-12-16T07:50:01;101370;;;-3.7;70
61571;BME280;47463;49.884;10.010;2022-12-16T07:55:01;101360;;;-3.7;70
61571;BME280;47463;49.884;10.010;2022-12-16T08:00:01;101370;;;-3.7;70
61571;BME280;47463;49.884;10.010;2022-12-16T08:05:01;101370;;;-3.7;70
61571;BME280;47463;49.884;10.010;2022-12-16T08:10:01;101390;;;-3.6;70
61571;BME280;47463;49.884;10.010;2022-12-16T08:15:01;101390;;;-3.5;69
61571;BME280;47463;49.884;10.010;2022-12-16T08:20:01;101400;;;-3.6;69
61571;BME280;47463;49.884;10.010;2022-12-16T08:25:01;101400;;;-3.5;70
61571;BME280;47463;49.884;10.010;2022-12-16T08:30:01;101400;;;-3.3;69
61571;BME280;47463;49.884;10.010;2022-12-16T08:35:01;101430;;;-3.4;70
61571;BME280;47463;49.884;10.010;2022-12-16T08:40:01;101440;;;-3.5;70
61571;BME280;47463;49.884;10.010;2022-12-16T08:45:01;101440;;;-3.5;70
61571;BME280;47463;49.884;10.010;2022-12-16T08:50:01;101450;;;-3.5;70
61571;BME280;47463;49.884;10.010;2022-12-16T08:55:01;101450;;;-3.4;70
61571;BME280;47463;49.884;10.010;2022-12-16T09:00:01;101460;;;-3.4;70
61571;BME280;47463;49.884;10.010;2022-12-16T09:05:01;101470;;;-3.5;70
61571;BME280;47463;49.884;10.010;2022-12-16T09:10:01;101490;;;-3.4;70
61571;BME280;47463;49.884;10.010;2022-12-16T09:15:01;101480;;;-3.3;70
61571;BME280;47463;49.884;10.010;2022-12-16T09:20:01;101490;;;-3.2;70
61571;BME280;47463;49.884;10.010;2022-12-16T09:25:01;101500;;;-2.9;70
61571;BME280;47463;49.884;10.010;2022-12-16T09:30:01;101500;;;-2.9;70
61571;BME280;47463;49.884;10.010;2022-12-16T09:35:01;101510;;;-2.6;70
61571;BME280;47463;49.884;10.010;2022-12-16T09:40:01;101510;;;-2.5;70
61571;BME280;47463;49.884;10.010;2022-12-16T09:45:02;101510;;;-2.5;70
61571;BME280;47463;49.884;10.010;2022-12-16T09:50:01;101510;;;-2.5;70
61571;BME280;47463;49.884;10.010;2022-12-16T09:55:01;101520;;;-2.4;70
61571;BME280;47463;49.884;10.010;2022-12-16T10:00:02;101520;;;-2.4;70
61571;BME280;47463;49.884;10.010;2022-12-16T10:05:01;101530;;;-2.3;70
61571;BME280;47463;49.884;10.010;2022-12-16T10:10:03;101530;;;-2.2;70
61571;BME280;47463;49.884;10.010;2022-12-16T10:15:02;101520;;;-2.2;70
61571;BME280;47463;49.884;10.010;2022-12-16T10:20:02;101520;;;-2.2;70
61571;BME280;47463;49.884;10.010;2022-12-16T10:25:02;101510;;;-2.3;70
61571;BME280;47463;49.884;10.010;2022-12-16T10:30:01;101520;;;-2.2;70
61571;BME280;47463;49.884;10.010;2022-12-16T10:35:01;101520;;;-2.1;70
61571;BME280;47463;49.884;10.010;2022-12-16T10:40:01;101530;;;-2.1;70
61571;BME280;47463;49.884;10.010;2022-12-16T10:45:01;101540;;;-2.1;70
61571;BME280;47463;49.884;10.010;2022-12-16T10:50:01;101540;;;-2;70
61571;BME280;47463;49.884;10.010;2022-12-16T10:55:02;101540;;;-1.9;70
61571;BME280;47463;49.884;10.010;2022-12-16T11:00:09;101540;;;-1.8;70
61571;BME280;47463;49.884;10.010;2022-12-16T11:05:01;101540;;;-1.8;70
61571;BME280;47463;49.884;10.010;2022-12-16T11:10:03;101540;;;-1.6;69
61571;BME280;47463;49.884;10.010;2022-12-16T11:15:01;101530;;;-1.6;69
61571;BME280;47463;49.884;10.010;2022-12-16T11:20:17;101540;;;-1.5;69
61571;BME280;47463;49.884;10.010;2022-12-16T11:25:03;101540;;;-1.4;69
61571;BME280;47463;49.884;10.010;2022-12-16T11:30:03;101550;;;-1.4;68
61571;BME280;47463;49.884;10.010;2022-12-16T11:35:01;101550;;;-1.4;68
61571;BME280;47463;49.884;10.010;2022-12-16T11:40:01;101540;;;-1.3;68
61571;BME280;47463;49.884;10.010;2022-12-16T11:45:01;101550;;;-1.2;68
61571;BME280;47463;49.884;10.010;2022-12-16T11:50:01;101570;;;-1.1;67
61571;BME280;47463;49.884;10.010;2022-12-16T11:55:05;101570;;;-1.1;67
61571;BME280;47463;49.884;10.010;2022-12-16T12:00:01;101570;;;-1.2;67
61571;BME280;47463;49.884;10.010;2022-12-16T12:05:01;101580;;;-1.2;67
61571;BME280;47463;49.884;10.010;2022-12-16T12:10:03;101590;;;-1.3;68
61571;BME280;47463;49.884;10.010;2022-12-16T12:15:02;101590;;;-1.3;67
61571;BME280;47463;49.884;10.010;2022-12-16T12:20:03;101590;;;-1.2;67
61571;BME280;47463;49.884;10.010;2022-12-16T12:25:02;101590;;;-0.9;67
61571;BME280;47463;49.884;10.010;2022-12-16T12:30:02;101600;;;-0.8;66
61571;BME280;47463;49.884;10.010;2022-12-16T12:35:02;101600;;;-0.6;67
61571;BME280;47463;49.884;10.010;2022-12-16T12:40:02;101600;;;-0.5;67
61571;BME280;47463;49.884;10.010;2022-12-16T12:45:04;101600;;;-0.5;67
61571;BME280;47463;49.884;10.010;2022-12-16T12:50:03;101610;;;-0.5;67
61571;BME280;47463;49.884;10.010;2022-12-16T12:55:03;101610;;;-0.5;67
61571;BME280;47463;49.884;10.010;2022-12-16T13:00:03;101620;;;-0.4;67
61571;BME280;47463;49.884;10.010;2022-12-16T13:05:01;101620;;;-0.5;67
61571;BME280;47463;49.884;10.010;2022-12-16T13:10:33;101630;;;-0.5;66
61571;BME280;47463;49.884;10.010;2022-12-16T13:15:02;101640;;;-0.5;66
61571;BME280;47463;49.884;10.010;2022-12-16T13:20:01;101640;;;-0.5;66
61571;BME280;47463;49.884;10.010;2022-12-16T13:25:01;101650;;;-0.5;67
61571;BME280;47463;49.884;10.010;2022-12-16T13:30:02;101670;;;-0.5;67
61571;BME280;47463;49.884;10.010;2022-12-16T13:35:02;101670;;;-0.5;67
61571;BME280;47463;49.884;10.010;2022-12-16T13:40:02;101670;;;-0.5;67
61571;BME280;47463;49.884;10.010;2022-12-16T13:45:07;101680;;;-0.5;67
61571;BME280;47463;49.884;10.010;2022-12-16T13:50:02;101680;;;-0.6;67
61571;BME280;47463;49.884;10.010;2022-12-16T13:55:06;101700;;;-0.6;67
61571;BME280;47463;49.884;10.010;2022-12-16T14:00:01;101700;;;-0.6;67
61571;BME280;47463;49.884;10.010;2022-12-16T14:05:01;101700;;;-0.7;67
61571;BME280;47463;49.884;10.010;2022-12-16T14:10:01;101710;;;-0.8;68
61571;BME280;47463;49.884;10.010;2022-12-16T14:15:02;101710;;;-0.9;68
61571;BME280;47463;49.884;10.010;2022-12-16T14:20:02;101720;;;-0.9;67
61571;BME280;47463;49.884;10.010;2022-12-16T14:25:02;101730;;;-1;68
61571;BME280;47463;49.884;10.010;2022-12-16T14:30:02;101730;;;-1;67
61571;BME280;47463;49.884;10.010;2022-12-16T14:35:01;101740;;;-1;67
61571;BME280;47463;49.884;10.010;2022-12-16T14:40:01;101740;;;-1;68
61571;BME280;47463;49.884;10.010;2022-12-16T14:45:01;101750;;;-0.9;67
61571;BME280;47463;49.884;10.010;2022-12-16T14:50:01;101780;;;-0.8;66
61571;BME280;47463;49.884;10.010;2022-12-16T14:55:08;101770;;;-0.8;66
61571;BME280;47463;49.884;10.010;2022-12-16T15:00:03;101790;;;-0.8;66
61571;BME280;47463;49.884;10.010;2022-12-16T15:05:01;101790;;;-0.8;66
61571;BME280;47463;49.884;10.010;2022-12-16T15:10:01;101790;;;-0.9;66
61571;BME280;47463;49.884;10.010;2022-12-16T15:15:02;101800;;;-0.9;67
61571;BME280;47463;49.884;10.010;2022-12-16T15:20:01;101810;;;-0.9;67
61571;BME280;47463;49.884;10.010;2022-12-16T15:25:01;101820;;;-1;68
61571;BME280;47463;49.884;10.010;2022-12-16T15:30:01;101830;;;-1;68
61571;BME280;47463;49.884;10.010;2022-12-16T15:35:01;101840;;;-1;68
61571;BME280;47463;49.884;10.010;2022-12-16T15:40:01;101850;;;-1;69
61571;BME280;47463;49.884;10.010;2022-12-16T15:45:01;101860;;;-1.1;69
61571;BME280;47463;49.884;10.010;2022-12-16T15:50:01;101860;;;-1.1;69
61571;BME280;47463;49.884;10.010;2022-12-16T15:55:01;101860;;;-1.2;69
61571;BME280;47463;49.884;10.010;2022-12-16T16:00:01;101870;;;-1.2;69
61571;BME280;47463;49.884;10.010;2022-12-16T16:05:01;101880;;;-1.1;69
61571;BME280;47463;49.884;10.010;2022-12-16T16:10:06;101890;;;-1.1;68
61571;BME280;47463;49.884;10.010;2022-12-16T16:15:01;101890;;;-1.2;68
61571;BME280;47463;49.884;10.010;2022-12-16T16:20:01;101890;;;-1.3;69
61571;BME280;47463;49.884;10.010;2022-12-16T16:25:01;101900;;;-1.5;69
61571;BME280;47463;49.884;10.010;2022-12-16T16:30:01;101910;;;-1.6;69
61571;BME280;47463;49.884;10.010;2022-12-16T16:35:01;101910;;;-1.7;68
61571;BME280;47463;49.884;10.010;2022-12-16T16:40:01;101920;;;-1.7;67
61571;BME280;47463;49.884;10.010;2022-12-16T16:45:01;101930;;;-1.9;67
61571;BME280;47463;49.884;10.010;2022-12-16T16:50:01;101920;;;-2;67
61571;BME280;47463;49.884;10.010;2022-12-16T16:55:01;101930;;;-1.9;67
61571;BME280;47463;49.884;10.010;2022-12-16T17:00:01;101930;;;-2.1;67
61571;BME280;47463;49.884;10.010;2022-12-16T17:05:01;101950;;;-2.1;67
61571;BME280;47463;49.884;10.010;2022-12-16T17:10:01;101950;;;-2.2;68
61571;BME280;47463;49.884;10.010;2022-12-16T17:15:01;101960;;;-2.4;68
61571;BME280;47463;49.884;10.010;2022-12-16T17:20:01;101970;;;-2.4;68
61571;BME280;47463;49.884;10.010;2022-12-16T17:25:01;101970;;;-2.5;68
61571;BME280;47463;49.884;10.010;2022-12-16T17:30:01;101970;;;-2.5;68
61571;BME280;47463;49.884;10.010;2022-12-16T17:35:01;101980;;;-2.6;67
61571;BME280;47463;49.884;10.010;2022-12-16T17:40:01;101990;;;-2.7;67
61571;BME280;47463;49.884;10.010;2022-12-16T17:45:01;102000;;;-2.7;67
61571;BME280;47463;49.884;10.010;2022-12-16T17:50:01;102010;;;-2.8;67
61571;BME280;47463;49.884;10.010;2022-12-16T17:55:01;102010;;;-2.9;67
61571;BME280;47463;49.884;10.010;2022-12-16T18:00:01;102020;;;-3.2;68
61571;BME280;47463;49.884;10.010;2022-12-16T18:05:01;102030;;;-3.2;68
61571;BME280;47463;49.884;10.010;2022-12-16T18:10:01;102020;;;-3.3;68
61571;BME280;47463;49.884;10.010;2022-12-16T18:15:01;102040;;;-3.4;68
61571;BME280;47463;49.884;10.010;2022-12-16T18:20:01;102040;;;-3.4;68
61571;BME280;47463;49.884;10.010;2022-12-16T18:25:01;102060;;;-3.4;68
61571;BME280;47463;49.884;10.010;2022-12-16T18:30:01;102060;;;-3.5;68
61571;BME280;47463;49.884;10.010;2022-12-16T18:35:01;102070;;;-3.5;68
61571;BME280;47463;49.884;10.010;2022-12-16T18:40:01;102070;;;-3.5;68
61571;BME280;47463;49.884;10.010;2022-12-16T18:45:01;102070;;;-3.6;68
61571;BME280;47463;49.884;10.010;2022-12-16T18:50:01;102090;;;-3.5;68
61571;BME280;47463;49.884;10.010;2022-12-16T18:55:01;102090;;;-3.6;68
61571;BME280;47463;49.884;10.010;2022-12-16T19:00:01;102090;;;-3.7;68
61571;BME280;47463;49.884;10.010;2022-12-16T19:05:01;102100;;;-3.7;68
61571;BME280;47463;49.884;10.010;2022-12-16T19:10:01;102100;;;-3.8;68
61571;BME280;47463;49.884;10.010;2022-12-16T19:15:01;102110;;;-3.9;68
61571;BME280;47463;49.884;10.010;2022-12-16T19:20:01;102120;;;-3.9;68
61571;BME280;47463;49.884;10.010;2022-12-16T19:25:01;102120;;;-4;69
61571;BME280;47463;49.884;10.010;2022-12-16T19:30:01;102140;;;-4.2;69
61571;BME280;47463;49.884;10.010;2022-12-16T19:35:01;102140;;;-4.3;69
61571;BME280;47463;49.884;10.010;2022-12-16T19:40:01;102160;;;-4.5;70
61571;BME280;47463;49.884;10.010;2022-12-16T19:45:01;102170;;;-4.8;70
61571;BME280;47463;49.884;10.010;2022-12-16T19:50:01;102180;;;-4.8;71
61571;BME280;47463;49.884;10.010;2022-12-16T19:55:01;102180;;;-4.9;71
61571;BME280;47463;49.884;10.010;2022-12-16T20:00:01;102190;;;-4.8;71
61571;BME280;47463;49.884;10.010;2022-12-16T20:05:01;102190;;;-4.7;71
61571;BME280;47463;49.884;10.010;2022-12-16T20:10:01;102210;;;-4.8;71
61571;BME280;47463;49.884;10.010;2022-12-16T20:15:01;102210;;;-5.1;72
61571;BME280;47463;49.884;10.010;2022-12-16T20:20:01;102230;;;-5.2;72
61571;BME280;47463;49.884;10.010;2022-12-16T20:25:01;102230;;;-5.8;73
61571;BME280;47463;49.884;10.010;2022-12-16T20:30:01;102230;;;-6;73
61571;BME280;47463;49.884;10.010;2022-12-16T20:35:01;102240;;;-6.3;74
61571;BME280;47463;49.884;10.010;2022-12-16T20:40:01;102250;;;-6.4;75
61571;BME280;47463;49.884;10.010;2022-12-16T20:45:01;102250;;;-6.6;76
61571;BME280;47463;49.884;10.010;2022-12-16T20:50:01;102260;;;-6.8;77
61571;BME280;47463;49.884;10.010;2022-12-16T20:55:01;102260;;;-6.8;77
61571;BME280;47463;49.884;10.010;2022-12-16T21:00:01;102270;;;-6.8;77
61571;BME280;47463;49.884;10.010;2022-12-16T21:05:01;102270;;;-6.9;78
61571;BME280;47463;49.884;10.010;2022-12-16T21:10:01;102280;;;-6.9;78
61571;BME280;47463;49.884;10.010;2022-12-16T21:15:01;102280;;;-7.1;78
61571;BME280;47463;49.884;10.010;2022-12-16T21:20:01;102290;;;-7.2;78
61571;BME280;47463;49.884;10.010;2022-12-16T21:25:01;102300;;;-7.3;79
61571;BME280;47463;49.884;10.010;2022-12-16T21:30:01;102300;;;-7.4;79
61571;BME280;47463;49.884;10.010;2022-12-16T21:35:01;102310;;;-7.4;79
61571;BME280;47463;49.884;10.010;2022-12-16T21:40:01;102320;;;-7.6;80
61571;BME280;47463;49.884;10.010;2022-12-16T21:45:01;102320;;;-7.7;80
61571;BME280;47463;49.884;10.010;2022-12-16T21:50:01;102330;;;-7.6;80
61571;BME280;47463;49.884;10.010;2022-12-16T21:55:01;102340;;;-7.7;80
61571;BME280;47463;49.884;10.010;2022-12-16T22:00:01;102350;;;-7.8;81
61571;BME280;47463;49.884;10.010;2022-12-16T22:05:01;102360;;;-7.8;81
61571;BME280;47463;49.884;10.010;2022-12-16T22:10:01;102360;;;-7.9;81
61571;BME280;47463;49.884;10.010;2022-12-16T22:15:01;102360;;;-8;81
61571;BME280;47463;49.884;10.010;2022-12-16T22:20:01;102370;;;-8;81
61571;BME280;47463;49.884;10.010;2022-12-16T22:25:01;102380;;;-7.9;81
61571;BME280;47463;49.884;10.010;2022-12-16T22:30:01;102380;;;-8.1;81
61571;BME280;47463;49.884;10.010;2022-12-16T22:35:01;102380;;;-8.2;81
61571;BME280;47463;49.884;10.010;2022-12-16T22:40:01;102400;;;-8.2;82
61571;BME280;47463;49.884;10.010;2022-12-16T22:45:01;102400;;;-8.2;82
61571;BME280;47463;49.884;10.010;2022-12-16T22:50:01;102400;;;-8.2;82
61571;BME280;47463;49.884;10.010;2022-12-16T22:55:01;102400;;;-8.2;82
61571;BME280;47463;49.884;10.010;2022-12-16T23:00:01;102400;;;-8.3;82
61571;BME280;47463;49.884;10.010;2022-12-16T23:05:01;102420;;;-8.4;82
61571;BME280;47463;49.884;10.010;2022-12-16T23:10:01;102420;;;-8.4;82
61571;BME280;47463;49.884;10.010;2022-12-16T23:15:01;102420;;;-8.5;82
61571;BME280;47463;49.884;10.010;2022-12-16T23:20:01;102420;;;-8.5;82
61571;BME280;47463;49.884;10.010;2022-12-16T23:25:01;102430;;;-8.5;82
61571;BME280;47463;49.884;10.010;2022-12-16T23:30:01;102440.00000000001;;;-8.4;82
61571;BME280;47463;49.884;10.010;2022-12-16T23:35:01;102459.99999999999;;;-8.4;82
61571;BME280;47463;49.884;10.010;2022-12-16T23:40:01;102459.99999999999;;;-8.5;82
61571;BME280;47463;49.884;10.010;2022-12-16T23:45:01;102459.99999999999;;;-8.6;82
61571;BME280;47463;49.884;10.010;2022-12-16T23:50:01;102459.99999999999;;;-8.6;83
61571;BME280;47463;49.884;10.010;2022-12-16T23:55:01;102480;;;-8.5;83
